Accueil
Images satellite Prévisions 15 joursClimatMétéo marine Cyclones Foudre AéroportsFAQ Actualités A propos
Météo : Europe Afrique Amérique du Nord Amérique du Sud Asie Australie-Océanie Autres
Langues Contact

Carcassonne, France

Salvaza

latitude: 43-13N, longitude: 002-19E, altitude: 130 m


METAR: LFMK 250600Z AUTO 26007KT 9999 NSC 14/08 Q1019
TAF: LFMK 250500Z 2506/2606 VRB02KT 9999 NSC BECMG 2508/2510 28012KT

Heure: 08:14 (06:14 UTC)

Observation

Le bulletin a été fait il y a 14 minutes, à 06:00 UTC
Vent 7 kt de ouest
Température 14°C
Humidité 67%
Pression 1019 hPa
Visibilité 10 km ou plus

Changer d'unités

Prévision

Le bulletin a été fait il y a 1 heure et 14 minutes, à 05:00 UTC
Prévision valable du 25 à 06 UTC au 26 à 06 UTC
Vent 2 kt de direction variable
Visibilité 10 km ou plus
Evoluant progressivement
du 25 à 08 UTC au 25 à 10 UTC
Vent 12 kt de ouest
Les informations qui figurent sur ce site font l'objet d'une clause de non-responsabilité
Météo : Europe Afrique Amérique du Nord Amérique du Sud Asie Australie-Océanie Autres
Images satellite Prévisions 15 joursClimatMétéo marine Cyclones Foudre AéroportsFAQ Langues Contact Actualités A propos